Time;durP1;ratioP1;P1;durP2;ratioP2;P2;SDS_P1;SDS_P2;PMS_P1;PMS_P2;Temp;Humidity;BMP_temperature;BMP_pressure;BME280_temperature;BME280_humidity;BME280_pressure;Samples;Min_cycle;Max_cycle;Signal;HPM_P1;HPM_P2
2023/03/19 00:00:44;;;;;;;14.55;7.12;;;;;;;4.54;88.66;99060.22;4485970;31;20134;-65
2023/03/19 00:03:12;;;;;;;12.93;6.22;;;;;;;4.60;88.69;99043.44;4485920;31;20097;-66
2023/03/19 00:05:40;;;;;;;15.65;7.50;;;;;;;4.57;88.51;99038.41;4486030;32;20149;-65
2023/03/19 00:08:07;;;;;;;15.20;7.43;;;;;;;4.50;88.53;99031.97;4485725;31;20166;-65
2023/03/19 00:10:38;;;;;;;14.18;7.62;;;;;;;4.52;88.66;99027.50;4485711;31;20096;-65
2023/03/19 00:13:05;;;;;;;12.88;7.07;;;;;;;4.49;88.35;99025.09;4485783;31;20430;-65
2023/03/19 00:15:33;;;;;;;13.73;6.87;;;;;;;4.50;88.58;99037.16;4485835;32;20105;-65
2023/03/19 00:18:01;;;;;;;13.02;6.75;;;;;;;4.52;88.86;99030.09;4485809;32;20152;-65
2023/03/19 00:20:28;;;;;;;16.42;7.18;;;;;;;4.37;90.02;99037.84;4485831;32;20080;-65
2023/03/19 00:22:55;;;;;;;13.88;7.12;;;;;;;4.38;89.68;99034.34;4485648;31;20505;-65
2023/03/19 00:25:23;;;;;;;13.70;8.00;;;;;;;4.39;90.46;99025.66;4486002;32;20092;-65
2023/03/19 00:27:51;;;;;;;19.33;8.30;;;;;;;4.25;91.12;99030.81;4485703;31;20608;-65
2023/03/19 00:30:21;;;;;;;18.17;7.47;;;;;;;4.33;90.43;99036.38;4485830;32;20139;-65
2023/03/19 00:32:50;;;;;;;17.08;7.70;;;;;;;4.30;90.76;99033.97;4485674;32;20135;-65
2023/03/19 00:35:17;;;;;;;16.85;7.80;;;;;;;4.29;90.89;99028.88;4485827;31;20454;-65
2023/03/19 00:37:44;;;;;;;16.75;7.87;;;;;;;4.16;90.94;99023.56;4485875;31;20449;-65
2023/03/19 00:40:12;;;;;;;17.80;8.07;;;;;;;4.12;91.23;99022.06;4485752;31;20084;-65
2023/03/19 00:42:40;;;;;;;15.90;7.15;;;;;;;4.10;91.21;99016.97;4485603;31;20102;-65
2023/03/19 00:45:08;;;;;;;13.93;6.07;;;;;;;4.14;91.48;99009.87;4485565;31;20206;-65
2023/03/19 00:47:35;;;;;;;14.65;7.00;;;;;;;4.07;92.08;99015.41;4485467;31;20139;-65
2023/03/19 00:50:03;;;;;;;13.98;7.37;;;;;;;4.13;91.31;99005.59;4485762;31;20092;-66
2023/03/19 00:52:30;;;;;;;14.32;7.35;;;;;;;4.17;91.00;99009.69;4485329;31;20483;-66
2023/03/19 00:54:58;;;;;;;14.07;7.68;;;;;;;4.07;91.57;99014.56;4485497;31;20156;-65
2023/03/19 00:57:25;;;;;;;16.83;8.63;;;;;;;4.05;91.98;99011.25;4485830;32;20167;-65
2023/03/19 00:59:53;;;;;;;16.62;7.62;;;;;;;4.08;91.75;99011.06;4485658;31;20114;-65
2023/03/19 01:02:20;;;;;;;13.13;6.40;;;;;;;3.98;92.70;99010.78;4485684;32;20081;-65
2023/03/19 01:04:48;;;;;;;15.20;7.40;;;;;;;3.98;92.53;99008.19;4485415;31;20116;-65
2023/03/19 01:07:15;;;;;;;17.02;8.40;;;;;;;3.99;92.19;99007.25;4485802;31;20126;-65
2023/03/19 01:09:43;;;;;;;17.05;7.70;;;;;;;3.87;92.96;99018.31;4483721;32;20122;-65
2023/03/19 01:12:10;;;;;;;13.98;7.18;;;;;;;3.76;93.62;99015.53;4485457;31;20138;-65
2023/03/19 01:14:37;;;;;;;16.83;8.38;;;;;;;3.79;93.36;99010.16;4485291;32;20541;-65
2023/03/19 01:17:05;;;;;;;17.85;7.62;;;;;;;3.85;93.44;99015.00;4485635;32;20467;-65
2023/03/19 01:19:33;;;;;;;15.07;7.32;;;;;;;3.79;93.72;99023.13;4484281;32;20143;-65
2023/03/19 01:22:00;;;;;;;12.60;6.93;;;;;;;3.72;94.43;99020.03;4485378;31;20171;-65
2023/03/19 01:24:32;;;;;;;18.15;7.95;;;;;;;3.75;94.48;99008.66;4485601;31;20089;-65
2023/03/19 01:27:00;;;;;;;14.85;6.95;;;;;;;3.73;94.62;99012.16;4484613;32;20084;-65
2023/03/19 01:29:27;;;;;;;16.70;7.12;;;;;;;3.66;94.78;99005.66;4485480;31;20156;-65
2023/03/19 01:31:56;;;;;;;18.00;8.25;;;;;;;3.68;94.36;99009.03;4485461;31;20088;-65
2023/03/19 01:34:23;;;;;;;15.20;7.82;;;;;;;3.54;96.00;99014.12;4485491;31;20088;-65
2023/03/19 01:36:51;;;;;;;15.38;7.57;;;;;;;3.50;96.06;99015.25;4485755;31;20092;-65
2023/03/19 01:39:19;;;;;;;17.52;7.43;;;;;;;3.54;96.20;99011.53;4485515;31;20508;-65
2023/03/19 01:41:46;;;;;;;14.43;6.85;;;;;;;3.62;95.53;99000.75;4483755;32;20490;-65
2023/03/19 01:44:32;;;;;;;19.12;8.35;;;;;;;3.62;94.99;99009.38;4485700;31;20088;-65
2023/03/19 01:47:03;;;;;;;16.10;7.47;;;;;;;3.54;95.13;99008.94;4485393;31;20084;-65
2023/03/19 01:49:31;;;;;;;19.73;7.32;;;;;;;3.47;95.79;99010.25;4485161;31;20462;-66
2023/03/19 01:52:02;;;;;;;15.45;6.40;;;;;;;3.50;95.61;99012.66;4485402;31;20155;-65
2023/03/19 01:54:30;;;;;;;14.02;6.60;;;;;;;3.43;96.45;99008.75;4484321;32;20104;-66
2023/03/19 01:57:11;;;;;;;13.60;6.32;;;;;;;3.38;96.29;99019.34;4485406;32;20489;-65
2023/03/19 01:59:46;;;;;;;14.10;7.65;;;;;;;3.37;96.83;99009.91;4483639;32;20110;-65
2023/03/19 02:02:30;;;;;;;13.48;6.03;;;;;;;3.49;96.13;99013.56;4484467;32;20145;-65
2023/03/19 02:05:24;;;;;;;14.48;6.95;;;;;;;3.46;96.11;99004.22;4485377;31;20096;-65
2023/03/19 02:08:04;;;;;;;11.47;5.70;;;;;;;3.49;95.46;99005.78;4485296;32;20114;-66
2023/03/19 02:10:32;;;;;;;15.30;6.32;;;;;;;3.41;95.66;99000.19;4484724;32;20240;-65
2023/03/19 02:13:00;;;;;;;15.35;6.93;;;;;;;3.45;95.68;98999.12;4485097;31;20191;-65
2023/03/19 02:15:27;;;;;;;13.30;6.40;;;;;;;3.46;95.68;99000.78;4484619;31;20105;-66
2023/03/19 02:17:55;;;;;;;13.80;6.10;;;;;;;3.46;96.05;98995.63;4485155;31;20115;-65
2023/03/19 02:20:25;;;;;;;17.37;7.25;;;;;;;3.34;96.28;98999.72;4484915;31;20119;-66
2023/03/19 02:22:59;;;;;;;13.95;7.28;;;;;;;3.33;96.09;98993.72;4485122;31;20083;-66
2023/03/19 02:25:32;;;;;;;12.80;6.35;;;;;;;3.27;96.96;98994.06;4485041;31;20168;-65
2023/03/19 02:28:00;;;;;;;15.75;6.87;;;;;;;3.31;96.99;98990.34;4485076;31;20080;-65
2023/03/19 02:30:31;;;;;;;12.98;6.18;;;;;;;3.29;97.22;98987.03;4484751;31;20168;-65
2023/03/19 02:33:00;;;;;;;13.55;7.45;;;;;;;3.26;97.53;98982.03;4485148;31;20084;-65
2023/03/19 02:35:30;;;;;;;11.38;5.47;;;;;;;3.26;97.36;98981.19;4484999;31;20153;-65
2023/03/19 02:37:59;;;;;;;15.65;5.90;;;;;;;3.19;97.65;98978.09;4483876;32;20429;-66
2023/03/19 02:40:35;;;;;;;14.50;6.55;;;;;;;3.17;97.70;98982.53;4483358;32;20401;-65
2023/03/19 02:43:05;;;;;;;15.40;6.80;;;;;;;3.14;97.66;98978.34;4483544;32;20099;-65
2023/03/19 02:45:32;;;;;;;17.40;6.60;;;;;;;3.15;97.79;98976.59;4484532;31;20096;-65
2023/03/19 02:48:00;;;;;;;14.15;6.50;;;;;;;3.13;98.03;98975.84;4484914;31;20104;-65
2023/03/19 02:50:27;;;;;;;11.02;5.93;;;;;;;3.12;97.78;98987.97;4484377;31;20115;-65
2023/03/19 02:52:54;;;;;;;12.82;6.35;;;;;;;3.16;97.27;98970.50;4484445;31;20346;-65
2023/03/19 02:55:21;;;;;;;13.27;6.07;;;;;;;3.31;95.55;98980.00;4484498;31;20428;-65
2023/03/19 02:57:48;;;;;;;11.20;5.68;;;;;;;3.33;95.82;98974.72;4484402;32;20112;-65
2023/03/19 03:00:17;;;;;;;10.55;4.97;;;;;;;3.27;96.37;98983.72;4484557;31;20474;-65
2023/03/19 03:02:44;;;;;;;10.65;5.37;;;;;;;3.30;95.78;98980.94;4484393;32;20092;-65
2023/03/19 03:05:13;;;;;;;14.07;5.30;;;;;;;3.38;94.85;98981.34;4484354;31;20631;-65
2023/03/19 03:07:42;;;;;;;11.77;5.57;;;;;;;3.29;94.81;98981.84;4483114;32;20123;-65
2023/03/19 03:10:10;;;;;;;13.10;5.65;;;;;;;3.27;95.49;98978.53;4484037;31;20461;-65
2023/03/19 03:12:37;;;;;;;13.95;5.70;;;;;;;3.26;95.94;98982.03;4485303;31;20083;-65
2023/03/19 03:15:06;;;;;;;10.45;5.90;;;;;;;3.19;96.43;98978.09;4486178;31;20465;-65
2023/03/19 03:17:37;;;;;;;15.27;6.75;;;;;;;3.18;95.15;98989.41;4485055;32;20109;-65
2023/03/19 03:20:06;;;;;;;17.27;6.87;;;;;;;3.15;95.79;98989.53;4486352;31;20122;-65
2023/03/19 03:22:34;;;;;;;11.77;6.07;;;;;;;3.12;97.08;98985.38;4486028;31;20141;-65
2023/03/19 03:25:01;;;;;;;12.98;6.55;;;;;;;3.02;98.20;98976.44;4486221;31;20100;-65
2023/03/19 03:27:29;;;;;;;15.73;6.43;;;;;;;2.92;98.53;98981.31;4486284;31;20080;-65
2023/03/19 03:29:56;;;;;;;13.35;6.05;;;;;;;2.91;99.16;98989.97;4486371;31;20089;-65
2023/03/19 03:32:23;;;;;;;15.75;7.53;;;;;;;2.81;100.00;98986.22;4485229;32;20370;-65
2023/03/19 03:34:51;;;;;;;14.25;6.65;;;;;;;2.67;100.00;98992.12;4486093;31;20088;-65
2023/03/19 03:37:20;;;;;;;13.05;5.53;;;;;;;2.62;100.00;98991.53;4486041;31;20134;-65
2023/03/19 03:39:47;;;;;;;11.12;6.47;;;;;;;2.51;100.00;98976.56;4486050;31;20479;-65
2023/03/19 03:42:15;;;;;;;16.40;6.40;;;;;;;2.63;100.00;98981.13;4486041;31;20104;-65
2023/03/19 03:44:42;;;;;;;15.13;6.00;;;;;;;2.65;100.00;98981.88;4486217;32;20465;-65
2023/03/19 03:47:10;;;;;;;11.90;5.28;;;;;;;2.64;100.00;98981.94;4486102;31;20113;-65
2023/03/19 03:49:37;;;;;;;15.65;6.53;;;;;;;2.53;100.00;98981.66;4486044;31;20466;-65
2023/03/19 03:52:05;;;;;;;10.20;6.22;;;;;;;2.43;100.00;98987.31;4485774;31;20155;-65
2023/03/19 03:54:32;;;;;;;12.23;5.60;;;;;;;2.53;100.00;98986.84;4486249;31;20504;-65
2023/03/19 03:57:00;;;;;;;16.20;6.40;;;;;;;2.46;100.00;98987.16;4486236;32;20172;-65
2023/03/19 03:59:29;;;;;;;10.20;5.43;;;;;;;2.38;100.00;98988.50;4486150;32;20108;-65
2023/03/19 04:01:57;;;;;;;14.65;6.25;;;;;;;2.30;100.00;98986.28;4485988;31;20499;-65
2023/03/19 04:04:25;;;;;;;13.13;6.28;;;;;;;2.26;100.00;98989.97;4485823;32;20093;-65
2023/03/19 04:06:52;;;;;;;12.93;6.70;;;;;;;2.26;100.00;98988.22;4486253;32;20088;-65
2023/03/19 04:09:23;;;;;;;12.25;6.22;;;;;;;2.08;100.00;98992.56;4485958;32;20148;-65
2023/03/19 04:11:50;;;;;;;11.75;5.72;;;;;;;2.11;100.00;98989.81;4484862;31;20499;-65
2023/03/19 04:14:17;;;;;;;12.18;5.78;;;;;;;2.10;100.00;98982.97;4485115;31;20092;-65
2023/03/19 04:16:45;;;;;;;13.27;5.93;;;;;;;2.22;100.00;98967.78;4484993;32;20589;-65
2023/03/19 04:19:13;;;;;;;11.10;5.72;;;;;;;2.19;100.00;98962.75;4485275;31;20478;-65
2023/03/19 04:21:40;;;;;;;14.07;6.00;;;;;;;2.10;100.00;98961.47;4484844;31;20103;-65
2023/03/19 04:24:09;;;;;;;10.00;5.40;;;;;;;2.21;100.00;98961.78;4484574;31;20135;-65
2023/03/19 04:26:37;;;;;;;9.73;5.65;;;;;;;2.30;100.00;98957.84;4485246;31;20104;-65
2023/03/19 04:29:04;;;;;;;14.13;6.40;;;;;;;2.30;100.00;98955.28;4484928;31;20107;-65
2023/03/19 04:31:32;;;;;;;12.88;5.28;;;;;;;2.27;100.00;98961.47;4484840;31;20092;-65
2023/03/19 04:34:00;;;;;;;11.95;5.40;;;;;;;2.25;100.00;98960.69;4485099;31;20169;-65
2023/03/19 04:36:27;;;;;;;10.60;5.78;;;;;;;2.24;100.00;98965.94;4485066;31;20100;-65
2023/03/19 04:38:54;;;;;;;14.05;6.30;;;;;;;2.29;100.00;98972.53;4485131;31;20412;-65
2023/03/19 04:41:22;;;;;;;10.25;5.25;;;;;;;2.24;100.00;98977.13;4484958;31;20092;-65
2023/03/19 04:43:50;;;;;;;9.85;5.18;;;;;;;2.19;100.00;98979.09;4485097;31;20155;-65
2023/03/19 04:46:17;;;;;;;13.40;5.37;;;;;;;2.20;100.00;98980.78;4484991;31;20690;-65
2023/03/19 04:48:45;;;;;;;16.90;6.75;;;;;;;2.22;100.00;98986.69;4484664;31;20114;-65
2023/03/19 04:51:13;;;;;;;8.98;5.18;;;;;;;2.23;100.00;98984.97;4484920;32;20422;-65
2023/03/19 04:53:41;;;;;;;14.85;6.25;;;;;;;2.13;100.00;98977.69;4484767;32;20096;-65
2023/03/19 04:56:08;;;;;;;11.85;5.28;;;;;;;2.16;100.00;98988.75;4484584;31;20188;-65
2023/03/19 04:58:35;;;;;;;10.73;5.55;;;;;;;2.24;100.00;98982.28;4484595;31;20135;-65
2023/03/19 05:01:02;;;;;;;12.00;5.00;;;;;;;2.29;100.00;98980.28;4484920;31;20096;-65
2023/03/19 05:03:32;;;;;;;11.75;5.28;;;;;;;2.22;100.00;98984.09;4484642;31;20111;-65
2023/03/19 05:06:00;;;;;;;10.73;5.68;;;;;;;2.24;100.00;98984.88;4485129;31;20109;-65
2023/03/19 05:08:27;;;;;;;16.80;5.80;;;;;;;2.31;100.00;98983.62;4484599;31;20096;-65
2023/03/19 05:10:54;;;;;;;8.70;4.43;;;;;;;2.27;100.00;98989.88;4482412;31;80760;-65
2023/03/19 05:13:24;;;;;;;14.87;5.55;;;;;;;2.38;100.00;98993.69;4485595;32;20647;-65
2023/03/19 05:15:54;;;;;;;10.88;5.57;;;;;;;2.40;100.00;98997.84;4485627;31;20088;-65
2023/03/19 05:18:22;;;;;;;8.45;4.55;;;;;;;2.46;100.00;98991.50;4485313;31;20546;-65
2023/03/19 05:20:49;;;;;;;11.82;5.03;;;;;;;2.57;100.00;98999.53;4485481;31;20100;-65
2023/03/19 05:23:16;;;;;;;11.55;5.07;;;;;;;2.58;100.00;98998.62;4485316;31;20100;-65
2023/03/19 05:25:45;;;;;;;9.95;4.25;;;;;;;2.61;100.00;98995.87;4485447;32;20551;-65
2023/03/19 05:28:13;;;;;;;10.65;4.93;;;;;;;2.66;100.00;98998.22;4485490;31;20093;-65
2023/03/19 05:30:42;;;;;;;10.57;4.43;;;;;;;2.74;100.00;99000.38;4485441;31;20457;-65
2023/03/19 05:33:10;;;;;;;13.35;5.78;;;;;;;2.82;100.00;99000.84;4485386;31;20154;-65
2023/03/19 05:35:38;;;;;;;9.60;5.20;;;;;;;2.94;98.87;98996.75;4484784;31;20646;-65
2023/03/19 05:38:06;;;;;;;11.38;5.00;;;;;;;3.06;99.27;99006.44;4485368;31;20152;-65
2023/03/19 05:40:35;;;;;;;10.18;4.62;;;;;;;3.23;98.72;99002.09;4484204;32;20111;-65
2023/03/19 05:43:03;;;;;;;12.10;5.87;;;;;;;3.35;96.37;98999.62;4485155;31;20163;-65
2023/03/19 05:45:30;;;;;;;11.65;4.50;;;;;;;3.39;96.46;98992.50;4485150;31;20122;-65
2023/03/19 05:47:59;;;;;;;10.82;4.57;;;;;;;3.34;95.89;98987.59;4485554;31;20469;-65
2023/03/19 05:50:30;;;;;;;7.10;3.92;;;;;;;3.45;95.94;98993.94;4485337;31;20514;-65
2023/03/19 05:53:01;;;;;;;17.08;5.65;;;;;;;3.48;93.62;98997.22;4485310;31;20114;-65
2023/03/19 05:55:29;;;;;;;9.23;4.47;;;;;;;3.64;94.52;99006.69;4485489;31;20138;-65
2023/03/19 05:57:56;;;;;;;7.93;4.37;;;;;;;3.69;93.05;99009.84;4484137;32;20108;-65
2023/03/19 06:00:24;;;;;;;10.02;4.95;;;;;;;3.78;93.05;99004.13;4485450;31;20096;-65
2023/03/19 06:02:53;;;;;;;7.95;4.62;;;;;;;3.83;92.58;98996.09;4485387;32;20483;-65
2023/03/19 06:05:22;;;;;;;10.85;4.90;;;;;;;3.83;92.47;99009.03;4485132;31;20201;-65
2023/03/19 06:07:49;;;;;;;7.53;3.85;;;;;;;3.95;91.21;99008.38;4485228;31;20096;-65
2023/03/19 06:10:18;;;;;;;8.52;4.05;;;;;;;4.12;90.41;99012.56;4484948;31;20153;-65
2023/03/19 06:12:46;;;;;;;7.32;3.97;;;;;;;4.00;89.63;99019.28;4485187;31;20175;-65
2023/03/19 06:15:15;;;;;;;11.73;4.57;;;;;;;4.16;89.99;99020.97;4485171;31;20121;-65
2023/03/19 06:17:47;;;;;;;9.07;5.12;;;;;;;4.28;88.37;99037.56;4485350;31;20390;-65
2023/03/19 06:20:15;;;;;;;9.05;4.62;;;;;;;4.25;87.92;99033.41;4485040;31;20164;-65
2023/03/19 06:22:43;;;;;;;8.38;3.97;;;;;;;4.37;87.75;99037.84;4485017;31;20666;-65
2023/03/19 06:25:10;;;;;;;13.02;5.15;;;;;;;4.34;87.46;99047.59;4485255;31;20096;-65
2023/03/19 06:27:38;;;;;;;9.95;4.47;;;;;;;4.48;87.53;99039.84;4484807;31;20097;-65
2023/03/19 06:30:06;;;;;;;8.35;4.32;;;;;;;4.54;85.72;99043.78;4483679;32;20095;-65
2023/03/19 06:32:34;;;;;;;8.82;4.15;;;;;;;4.68;84.31;99037.78;4485088;31;20750;-65
2023/03/19 06:35:02;;;;;;;6.95;4.30;;;;;;;4.79;84.56;99043.16;4485093;31;20105;-65
2023/03/19 06:37:29;;;;;;;5.20;3.05;;;;;;;4.95;84.16;99043.03;4485172;31;20101;-65
2023/03/19 06:39:56;;;;;;;10.82;4.20;;;;;;;4.92;82.68;99049.28;4484534;31;20119;-65
2023/03/19 06:42:24;;;;;;;10.38;4.37;;;;;;;5.04;83.37;99047.69;4484745;31;20088;-65
2023/03/19 06:44:51;;;;;;;8.32;4.32;;;;;;;4.97;82.71;99044.62;4483668;32;20121;-65
2023/03/19 06:47:20;;;;;;;8.23;4.12;;;;;;;5.21;81.72;99050.97;4484471;31;20100;-65
2023/03/19 06:49:47;;;;;;;9.57;4.40;;;;;;;5.20;80.93;99054.50;4484551;31;20092;-65
2023/03/19 06:52:14;;;;;;;11.70;5.07;;;;;;;5.25;80.02;99050.69;4484404;31;20194;-65
2023/03/19 06:54:42;;;;;;;6.32;3.80;;;;;;;5.46;80.41;99047.66;4484417;32;20088;-65
2023/03/19 06:57:11;;;;;;;9.40;4.80;;;;;;;5.60;80.35;99047.63;4484671;31;20428;-65
2023/03/19 06:59:38;;;;;;;8.55;4.62;;;;;;;5.55;77.83;99035.84;4484334;31;20201;-65
2023/03/19 07:02:05;;;;;;;6.75;4.10;;;;;;;5.62;78.55;99039.72;4484554;31;20104;-65
2023/03/19 07:04:35;;;;;;;5.45;3.85;;;;;;;5.72;77.99;99040.78;4484362;31;20118;-65
2023/03/19 07:07:04;;;;;;;11.68;4.70;;;;;;;5.57;76.77;99028.78;4470282;32;20577;-65
2023/03/19 07:09:32;;;;;;;12.70;4.60;;;;;;;5.50;77.96;99039.56;4484032;31;20437;-65
2023/03/19 07:11:59;;;;;;;6.90;4.18;;;;;;;5.41;78.68;99034.16;4484285;31;20425;-65
2023/03/19 07:14:26;;;;;;;12.60;4.47;;;;;;;5.48;79.12;99035.41;4484310;31;20492;-66
2023/03/19 07:16:54;;;;;;;7.80;4.32;;;;;;;5.37;79.16;99035.25;4484235;32;20084;-65
2023/03/19 07:19:22;;;;;;;8.70;5.10;;;;;;;5.41;78.43;99036.75;4484206;31;20084;-65
2023/03/19 07:21:49;;;;;;;10.93;4.35;;;;;;;5.42;79.93;99039.25;4483968;32;20127;-65
2023/03/19 07:24:16;;;;;;;6.47;4.10;;;;;;;5.40;78.79;99040.25;4484087;31;20528;-65
2023/03/19 07:26:43;;;;;;;9.15;4.35;;;;;;;5.46;77.73;99043.28;4484103;32;20100;-65
2023/03/19 07:29:10;;;;;;;8.25;4.87;;;;;;;5.64;79.27;99049.06;4484139;31;20480;-65
2023/03/19 07:31:38;;;;;;;12.15;4.60;;;;;;;5.67;77.00;99050.66;4483972;31;20104;-65
2023/03/19 07:34:05;;;;;;;9.63;4.82;;;;;;;5.58;76.29;99057.28;4484131;31;20180;-65
2023/03/19 07:36:32;;;;;;;8.38;4.65;;;;;;;5.66;77.07;99054.16;4483932;31;20456;-65
2023/03/19 07:39:00;;;;;;;8.82;4.35;;;;;;;5.79;76.67;99052.44;4484107;31;20093;-65
2023/03/19 07:41:27;;;;;;;13.32;4.75;;;;;;;6.05;75.56;99047.34;4483709;31;20115;-65
2023/03/19 07:43:54;;;;;;;6.37;3.78;;;;;;;6.03;74.59;99051.81;4483946;31;20119;-65
2023/03/19 07:46:21;;;;;;;9.60;4.70;;;;;;;6.17;75.64;99049.13;4483874;32;20116;-65
2023/03/19 07:48:49;;;;;;;8.80;4.47;;;;;;;6.34;74.85;99034.16;4483970;31;20103;-65
2023/03/19 07:51:16;;;;;;;8.02;4.10;;;;;;;6.18;72.72;99050.81;4483774;32;20223;-65
2023/03/19 07:53:43;;;;;;;7.45;4.03;;;;;;;6.27;74.67;99032.91;4483823;31;20184;-65
2023/03/19 07:56:11;;;;;;;10.25;4.30;;;;;;;6.31;72.65;99044.78;4483628;31;20114;-65
2023/03/19 07:58:39;;;;;;;6.70;3.97;;;;;;;6.55;73.86;99037.91;4485034;31;20126;-65
2023/03/19 08:01:07;;;;;;;8.90;4.35;;;;;;;6.70;71.00;99032.59;4485872;31;20478;-65
2023/03/19 08:03:34;;;;;;;10.77;5.00;;;;;;;6.77;70.57;99036.44;4484802;32;20142;-65
2023/03/19 08:06:02;;;;;;;10.05;4.28;;;;;;;6.90;72.20;99034.66;4486064;31;20085;-65
2023/03/19 08:08:30;;;;;;;7.32;3.67;;;;;;;7.01;67.98;99036.50;4485990;31;20122;-65
2023/03/19 08:10:57;;;;;;;11.50;4.50;;;;;;;7.06;68.50;99038.78;4485721;32;20146;-65
2023/03/19 08:13:24;;;;;;;12.13;4.65;;;;;;;7.25;68.62;99040.91;4485971;31;20108;-65
2023/03/19 08:15:52;;;;;;;8.13;4.55;;;;;;;7.34;66.68;99042.03;4485712;31;20100;-65
2023/03/19 08:18:19;;;;;;;7.07;3.97;;;;;;;7.29;66.15;99039.75;4484861;32;20486;-65
2023/03/19 08:20:46;;;;;;;9.52;4.50;;;;;;;7.41;66.27;99036.25;4485902;31;20096;-65
2023/03/19 08:23:16;;;;;;;6.03;3.72;;;;;;;7.56;65.78;99031.72;4485599;31;20119;-65
2023/03/19 08:25:43;;;;;;;10.23;4.15;;;;;;;7.47;64.63;99035.00;4485844;32;20112;-65
2023/03/19 08:28:11;;;;;;;8.95;4.05;;;;;;;7.71;65.99;99040.19;4485803;31;20100;-65
2023/03/19 08:30:39;;;;;;;9.35;4.32;;;;;;;7.88;65.97;99043.34;4486016;32;20108;-65
2023/03/19 08:33:07;;;;;;;9.07;4.40;;;;;;;8.02;62.00;99048.37;4485765;31;20422;-65
2023/03/19 08:35:34;;;;;;;9.65;4.30;;;;;;;7.73;64.32;99050.53;4484437;32;20131;-65
2023/03/19 08:38:01;;;;;;;8.73;3.53;;;;;;;8.00;64.64;99043.25;4485776;31;20106;-65
2023/03/19 08:40:29;;;;;;;7.12;3.80;;;;;;;8.22;62.91;99036.47;4485568;31;20225;-65
2023/03/19 08:42:56;;;;;;;10.18;4.12;;;;;;;8.31;62.43;99034.91;4485706;31;20172;-65
2023/03/19 08:45:23;;;;;;;8.50;3.70;;;;;;;8.26;60.12;99035.25;4485631;31;20100;-66
2023/03/19 08:47:51;;;;;;;6.82;3.83;;;;;;;8.14;60.63;99036.19;4485676;31;20571;-65
2023/03/19 08:50:18;;;;;;;5.78;4.10;;;;;;;8.20;60.35;99033.13;4485514;31;20096;-66
2023/03/19 08:52:45;;;;;;;6.97;3.45;;;;;;;8.27;59.87;99029.09;4485243;31;20100;-66
2023/03/19 08:55:13;;;;;;;6.10;3.80;;;;;;;8.57;60.28;99029.50;4484371;32;20092;-66
2023/03/19 08:57:40;;;;;;;5.68;3.42;;;;;;;8.62;60.33;99022.19;4485524;31;20088;-65
2023/03/19 09:00:08;;;;;;;8.02;4.07;;;;;;;8.66;58.97;99031.41;4485510;31;20088;-66
2023/03/19 09:02:35;;;;;;;7.05;4.07;;;;;;;8.90;58.45;99033.91;4485544;31;20127;-66
2023/03/19 09:05:03;;;;;;;6.43;3.37;;;;;;;9.09;56.34;99027.25;4485554;31;20084;-65
2023/03/19 09:07:30;;;;;;;8.35;3.80;;;;;;;9.00;55.88;99029.62;4485494;31;20136;-65
2023/03/19 09:09:57;;;;;;;6.57;3.35;;;;;;;9.17;56.82;99020.44;4484178;32;20077;-66
2023/03/19 09:12:24;;;;;;;8.10;3.85;;;;;;;9.20;55.52;99025.44;4485300;32;20104;-65
2023/03/19 09:14:51;;;;;;;6.43;3.35;;;;;;;9.15;54.73;99021.53;4485544;31;20659;-66
2023/03/19 09:17:19;;;;;;;6.50;3.42;;;;;;;9.22;55.59;99020.09;4485335;31;20093;-65
2023/03/19 09:19:46;;;;;;;7.78;4.07;;;;;;;9.25;54.60;99025.09;4485499;31;20187;-66
2023/03/19 09:22:13;;;;;;;7.28;3.45;;;;;;;9.27;54.65;99017.13;4485233;32;20108;-65
2023/03/19 09:24:40;;;;;;;5.85;3.55;;;;;;;9.37;54.37;99018.87;4485274;32;20123;-65
2023/03/19 09:27:08;;;;;;;7.05;3.83;;;;;;;9.53;55.39;99023.69;4485404;31;20508;-65
2023/03/19 09:29:35;;;;;;;5.82;3.25;;;;;;;9.58;53.91;99021.53;4485744;31;20140;-66
2023/03/19 09:32:03;;;;;;;6.60;3.53;;;;;;;9.55;53.56;99016.56;4485235;31;20196;-65
2023/03/19 09:34:30;;;;;;;8.27;3.87;;;;;;;9.69;54.70;99011.97;4485320;31;20088;-66
2023/03/19 09:36:57;;;;;;;10.80;3.53;;;;;;;9.80;53.19;99008.50;4485333;31;20144;-65
2023/03/19 09:39:25;;;;;;;7.10;4.18;;;;;;;9.90;52.37;99012.00;4485387;32;20138;-65
2023/03/19 09:42:19;;;;;;;5.87;3.40;;;;;;;9.99;54.48;99010.41;4485226;31;20151;-66
2023/03/19 09:44:47;;;;;;;9.73;4.10;;;;;;;10.08;52.29;98999.16;4483949;32;20112;-65
2023/03/19 09:47:32;;;;;;;6.78;3.42;;;;;;;10.11;52.70;99007.63;4485078;31;20446;-65
2023/03/19 09:50:04;;;;;;;7.00;3.55;;;;;;;10.24;52.27;98996.94;4485241;31;20089;-66
2023/03/19 09:52:43;;;;;;;9.65;4.20;;;;;;;10.45;53.46;98996.94;4483672;32;20355;-66
2023/03/19 09:55:39;;;;;;;7.12;3.72;;;;;;;10.66;52.32;99001.31;4485293;31;20449;-65
2023/03/19 09:58:13;;;;;;;15.82;4.28;;;;;;;11.00;51.32;99009.66;4481125;31;20454;-66
2023/03/19 10:00:42;;;;;;;7.72;4.18;;;;;;;11.09;50.53;99000.19;4485224;32;20461;-65
2023/03/19 10:03:24;;;;;;;14.00;4.82;;;;;;;11.09;49.64;99005.41;4485217;31;20092;-66
2023/03/19 10:05:58;;;;;;;7.35;3.95;;;;;;;11.12;50.94;99002.53;4483652;32;20093;-65
2023/03/19 10:08:59;;;;;;;9.57;3.87;;;;;;;10.88;50.26;99004.69;4485362;31;20143;-66
2023/03/19 10:11:31;;;;;;;6.00;3.60;;;;;;;10.78;49.65;99005.47;4484844;31;20127;-66
2023/03/19 10:14:11;;;;;;;8.90;4.10;;;;;;;10.58;50.04;98998.50;4485160;31;20091;-66
2023/03/19 10:16:42;;;;;;;7.32;4.15;;;;;;;10.87;49.70;99000.38;4485038;31;20084;-66
2023/03/19 10:19:13;;;;;;;8.50;4.12;;;;;;;10.93;49.98;99003.31;4483689;32;20081;-66
2023/03/19 10:21:43;;;;;;;15.73;4.40;;;;;;;10.93;49.28;99003.31;4484438;31;20139;-65
2023/03/19 10:24:32;;;;;;;78.82;8.23;;;;;;;10.83;48.75;99000.66;4485060;32;20506;-66
2023/03/19 10:27:12;;;;;;;6.05;3.62;;;;;;;10.95;49.80;98996.16;4484999;31;20469;-66
2023/03/19 10:29:40;;;;;;;13.82;3.92;;;;;;;11.05;51.22;98984.84;4483715;32;20096;-66
2023/03/19 10:32:20;;;;;;;11.82;5.28;;;;;;;11.29;49.24;98981.84;4484767;31;20473;-66
2023/03/19 10:34:49;;;;;;;6.28;3.92;;;;;;;11.03;48.42;98986.78;4484997;31;20104;-65
2023/03/19 10:37:21;;;;;;;8.05;4.32;;;;;;;11.22;48.27;98980.75;4484920;31;20108;-66
2023/03/19 10:39:51;;;;;;;6.53;4.10;;;;;;;11.41;49.19;98974.69;4485030;31;20126;-66
2023/03/19 10:42:36;;;;;;;7.72;4.25;;;;;;;11.63;48.28;98978.84;4484662;31;20596;-66
2023/03/19 10:45:36;;;;;;;9.35;3.83;;;;;;;11.76;49.27;98970.69;4484833;32;20085;-66
2023/03/19 10:48:05;;;;;;;8.07;4.60;;;;;;;11.65;46.61;98974.28;4483104;31;20450;-66
2023/03/19 10:50:57;;;;;;;8.10;4.47;;;;;;;11.63;46.43;98963.09;4483499;32;20395;-65
2023/03/19 10:53:33;;;;;;;7.85;4.47;;;;;;;11.71;47.76;98956.16;4483350;32;20116;-65
2023/03/19 10:56:21;;;;;;;6.47;3.80;;;;;;;11.87;48.41;98965.28;4484602;31;20114;-65
2023/03/19 10:59:03;;;;;;;10.15;4.68;;;;;;;11.99;46.57;98964.19;4484790;32;20080;-65
2023/03/19 11:01:40;;;;;;;17.27;4.40;;;;;;;11.98;46.77;98959.09;4484544;31;20147;-66
2023/03/19 11:04:20;;;;;;;7.82;4.28;;;;;;;12.15;47.35;98957.53;4484627;32;20503;-66
2023/03/19 11:06:53;;;;;;;7.50;4.45;;;;;;;12.06;46.24;98951.31;4484567;32;20444;-66
2023/03/19 11:09:31;;;;;;;10.27;4.15;;;;;;;12.00;48.12;98944.00;4484402;31;20088;-65
2023/03/19 11:12:21;;;;;;;6.20;3.28;;;;;;;12.01;45.95;98941.25;4484081;31;20627;-66
2023/03/19 11:14:50;;;;;;;6.68;3.80;;;;;;;12.04;45.93;98940.13;4483174;32;20180;-66
2023/03/19 11:17:42;;;;;;;7.93;3.87;;;;;;;12.20;48.02;98931.63;4484294;31;20390;-66
2023/03/19 11:20:22;;;;;;;8.20;4.50;;;;;;;12.45;47.12;98930.19;4435264;32;20154;-66
2023/03/19 11:22:51;;;;;;;7.10;4.10;;;;;;;12.74;46.24;98932.66;4434886;32;20131;-66
2023/03/19 11:25:39;;;;;;;6.18;4.28;;;;;;;12.62;43.97;98928.56;4434910;32;20703;-66
2023/03/19 11:28:11;;;;;;;7.90;4.37;;;;;;;12.43;44.80;98919.00;4434979;32;20193;-66
2023/03/19 11:30:55;;;;;;;5.80;3.53;;;;;;;12.53;48.22;98917.13;4435319;32;20423;-66
2023/03/19 11:34:05;;;;;;;5.82;3.90;;;;;;;12.78;46.21;98915.62;4435830;32;20156;-66
2023/03/19 11:36:41;;;;;;;9.45;3.80;;;;;;;12.84;48.56;98921.25;4431074;32;20825;-66
2023/03/19 11:39:23;;;;;;;7.03;4.43;;;;;;;13.17;45.48;98917.16;4437080;32;20490;-66
2023/03/19 11:42:16;;;;;;;6.03;3.97;;;;;;;13.43;43.88;98921.69;4424438;32;20120;-66
2023/03/19 11:45:01;;;;;;;8.38;4.70;;;;;;;13.37;43.23;98917.88;4431232;32;20127;-66
2023/03/19 11:47:50;;;;;;;8.93;4.93;;;;;;;13.26;45.34;98920.69;4436821;32;20537;-66